sensor_id;sensor_type;location;lat;lon;timestamp;temperature;humidity
17599;DHT22;8918;52.092;5.232;2023-11-22T00:00:12;5.10;99.90
17599;DHT22;8918;52.092;5.232;2023-11-22T00:02:39;5.10;99.90
17599;DHT22;8918;52.092;5.232;2023-11-22T00:05:05;5.10;99.90
17599;DHT22;8918;52.092;5.232;2023-11-22T00:07:32;5.10;99.90
17599;DHT22;8918;52.092;5.232;2023-11-22T00:09:57;5.00;99.90
17599;DHT22;8918;52.092;5.232;2023-11-22T00:12:23;5.10;99.90
17599;DHT22;8918;52.092;5.232;2023-11-22T00:14:50;5.10;99.90
17599;DHT22;8918;52.092;5.232;2023-11-22T00:17:16;5.00;99.90
17599;DHT22;8918;52.092;5.232;2023-11-22T00:19:45;5.00;99.90
17599;DHT22;8918;52.092;5.232;2023-11-22T00:22:11;5.00;99.90
17599;DHT22;8918;52.092;5.232;2023-11-22T00:24:40;5.00;99.90
17599;DHT22;8918;52.092;5.232;2023-11-22T00:27:06;5.10;99.90
17599;DHT22;8918;52.092;5.232;2023-11-22T00:29:32;5.10;99.90
17599;DHT22;8918;52.092;5.232;2023-11-22T00:31:58;5.10;99.90
17599;DHT22;8918;52.092;5.232;2023-11-22T00:34:24;5.10;99.90
17599;DHT22;8918;52.092;5.232;2023-11-22T00:36:50;5.10;99.90
17599;DHT22;8918;52.092;5.232;2023-11-22T00:39:16;5.10;99.90
17599;DHT22;8918;52.092;5.232;2023-11-22T00:41:42;5.10;99.90
17599;DHT22;8918;52.092;5.232;2023-11-22T00:44:07;5.10;99.90
17599;DHT22;8918;52.092;5.232;2023-11-22T00:46:33;5.10;99.90
17599;DHT22;8918;52.092;5.232;2023-11-22T00:48:59;5.00;99.90
17599;DHT22;8918;52.092;5.232;2023-11-22T00:51:24;5.00;99.90
17599;DHT22;8918;52.092;5.232;2023-11-22T00:53:50;4.90;99.90
17599;DHT22;8918;52.092;5.232;2023-11-22T00:56:16;4.90;99.90
17599;DHT22;8918;52.092;5.232;2023-11-22T00:58:42;4.90;99.90
17599;DHT22;8918;52.092;5.232;2023-11-22T01:01:08;4.90;99.90
17599;DHT22;8918;52.092;5.232;2023-11-22T01:03:34;4.90;99.90
17599;DHT22;8918;52.092;5.232;2023-11-22T01:06:01;4.80;99.90
17599;DHT22;8918;52.092;5.232;2023-11-22T01:08:26;4.80;99.90
17599;DHT22;8918;52.092;5.232;2023-11-22T01:10:52;4.80;99.90
17599;DHT22;8918;52.092;5.232;2023-11-22T01:13:18;4.70;99.90
17599;DHT22;8918;52.092;5.232;2023-11-22T01:15:43;4.70;99.90
17599;DHT22;8918;52.092;5.232;2023-11-22T01:18:10;4.70;99.90
17599;DHT22;8918;52.092;5.232;2023-11-22T01:20:36;4.70;99.90
17599;DHT22;8918;52.092;5.232;2023-11-22T01:23:01;4.70;99.90
17599;DHT22;8918;52.092;5.232;2023-11-22T01:25:27;4.60;99.90
17599;DHT22;8918;52.092;5.232;2023-11-22T01:27:53;4.50;99.90
17599;DHT22;8918;52.092;5.232;2023-11-22T01:30:19;4.60;99.90
17599;DHT22;8918;52.092;5.232;2023-11-22T01:32:44;4.50;99.90
17599;DHT22;8918;52.092;5.232;2023-11-22T01:35:10;4.50;99.90
17599;DHT22;8918;52.092;5.232;2023-11-22T01:37:36;4.50;99.90
17599;DHT22;8918;52.092;5.232;2023-11-22T01:40:02;4.50;99.90
17599;DHT22;8918;52.092;5.232;2023-11-22T01:42:29;4.40;99.90
17599;DHT22;8918;52.092;5.232;2023-11-22T01:44:54;4.30;99.90
17599;DHT22;8918;52.092;5.232;2023-11-22T01:47:20;4.30;99.90
17599;DHT22;8918;52.092;5.232;2023-11-22T01:49:46;4.30;99.90
17599;DHT22;8918;52.092;5.232;2023-11-22T01:52:12;4.20;99.90
17599;DHT22;8918;52.092;5.232;2023-11-22T01:54:38;4.20;99.90
17599;DHT22;8918;52.092;5.232;2023-11-22T01:57:04;4.10;99.90
17599;DHT22;8918;52.092;5.232;2023-11-22T01:59:33;4.10;99.90
17599;DHT22;8918;52.092;5.232;2023-11-22T02:01:59;4.10;99.90
17599;DHT22;8918;52.092;5.232;2023-11-22T02:04:25;4.10;99.90
17599;DHT22;8918;52.092;5.232;2023-11-22T02:06:51;4.10;99.90
17599;DHT22;8918;52.092;5.232;2023-11-22T02:09:16;4.20;99.90
17599;DHT22;8918;52.092;5.232;2023-11-22T02:11:43;4.10;99.90
17599;DHT22;8918;52.092;5.232;2023-11-22T02:14:13;4.10;99.90
17599;DHT22;8918;52.092;5.232;2023-11-22T02:16:39;4.00;99.90
17599;DHT22;8918;52.092;5.232;2023-11-22T02:19:06;4.00;99.90
17599;DHT22;8918;52.092;5.232;2023-11-22T02:21:33;3.90;99.90
17599;DHT22;8918;52.092;5.232;2023-11-22T02:23:58;3.90;99.90
17599;DHT22;8918;52.092;5.232;2023-11-22T02:26:24;3.90;99.90
17599;DHT22;8918;52.092;5.232;2023-11-22T02:28:50;3.90;99.90
17599;DHT22;8918;52.092;5.232;2023-11-22T02:31:16;3.90;99.90
17599;DHT22;8918;52.092;5.232;2023-11-22T02:33:42;3.80;99.90
17599;DHT22;8918;52.092;5.232;2023-11-22T02:36:08;3.80;99.90
17599;DHT22;8918;52.092;5.232;2023-11-22T02:38:37;3.70;99.90
17599;DHT22;8918;52.092;5.232;2023-11-22T02:41:03;3.70;99.90
17599;DHT22;8918;52.092;5.232;2023-11-22T02:43:30;3.70;99.90
17599;DHT22;8918;52.092;5.232;2023-11-22T02:45:55;3.60;99.90
17599;DHT22;8918;52.092;5.232;2023-11-22T02:48:21;3.60;99.90
17599;DHT22;8918;52.092;5.232;2023-11-22T02:50:46;3.50;99.90
17599;DHT22;8918;52.092;5.232;2023-11-22T02:53:12;3.60;99.90
17599;DHT22;8918;52.092;5.232;2023-11-22T02:55:37;3.60;99.90
17599;DHT22;8918;52.092;5.232;2023-11-22T02:58:03;3.60;99.90
17599;DHT22;8918;52.092;5.232;2023-11-22T03:00:29;3.60;99.90
17599;DHT22;8918;52.092;5.232;2023-11-22T03:02:55;3.60;99.90
17599;DHT22;8918;52.092;5.232;2023-11-22T03:05:21;3.50;99.90
17599;DHT22;8918;52.092;5.232;2023-11-22T03:07:47;3.40;99.90
17599;DHT22;8918;52.092;5.232;2023-11-22T03:10:13;3.40;99.90
17599;DHT22;8918;52.092;5.232;2023-11-22T03:12:39;3.40;99.90
17599;DHT22;8918;52.092;5.232;2023-11-22T03:15:05;3.40;99.90
17599;DHT22;8918;52.092;5.232;2023-11-22T03:17:31;3.40;99.90
17599;DHT22;8918;52.092;5.232;2023-11-22T03:19:58;3.40;99.90
17599;DHT22;8918;52.092;5.232;2023-11-22T03:22:24;3.30;99.90
17599;DHT22;8918;52.092;5.232;2023-11-22T03:24:50;3.40;99.90
17599;DHT22;8918;52.092;5.232;2023-11-22T03:27:16;3.30;99.90
17599;DHT22;8918;52.092;5.232;2023-11-22T03:29:42;3.30;99.90
17599;DHT22;8918;52.092;5.232;2023-11-22T03:32:07;3.20;99.90
17599;DHT22;8918;52.092;5.232;2023-11-22T03:34:33;3.20;99.90
17599;DHT22;8918;52.092;5.232;2023-11-22T03:36:59;3.30;99.90
17599;DHT22;8918;52.092;5.232;2023-11-22T03:39:24;3.30;99.90
17599;DHT22;8918;52.092;5.232;2023-11-22T03:41:50;3.30;99.90
17599;DHT22;8918;52.092;5.232;2023-11-22T03:44:16;3.30;99.90
17599;DHT22;8918;52.092;5.232;2023-11-22T03:46:42;3.30;99.90
17599;DHT22;8918;52.092;5.232;2023-11-22T03:49:08;3.30;99.90
17599;DHT22;8918;52.092;5.232;2023-11-22T03:51:34;3.30;99.90
17599;DHT22;8918;52.092;5.232;2023-11-22T03:54:01;3.30;99.90
17599;DHT22;8918;52.092;5.232;2023-11-22T03:56:28;3.20;99.90
17599;DHT22;8918;52.092;5.232;2023-11-22T03:58:53;3.20;99.90
17599;DHT22;8918;52.092;5.232;2023-11-22T04:01:19;3.20;99.90
17599;DHT22;8918;52.092;5.232;2023-11-22T04:03:46;3.20;99.90
17599;DHT22;8918;52.092;5.232;2023-11-22T04:06:16;3.20;99.90
17599;DHT22;8918;52.092;5.232;2023-11-22T04:08:46;3.20;99.90
17599;DHT22;8918;52.092;5.232;2023-11-22T04:11:12;3.20;99.90
17599;DHT22;8918;52.092;5.232;2023-11-22T04:13:38;3.20;99.90
17599;DHT22;8918;52.092;5.232;2023-11-22T04:16:05;3.20;99.90
17599;DHT22;8918;52.092;5.232;2023-11-22T04:18:34;3.20;99.90
17599;DHT22;8918;52.092;5.232;2023-11-22T04:21:01;3.20;99.90
17599;DHT22;8918;52.092;5.232;2023-11-22T04:23:26;3.20;99.90
17599;DHT22;8918;52.092;5.232;2023-11-22T04:25:52;3.20;99.90
17599;DHT22;8918;52.092;5.232;2023-11-22T04:28:17;3.20;99.90
17599;DHT22;8918;52.092;5.232;2023-11-22T04:30:43;3.20;99.90
17599;DHT22;8918;52.092;5.232;2023-11-22T04:33:09;3.20;99.90
17599;DHT22;8918;52.092;5.232;2023-11-22T04:35:34;3.20;99.90
17599;DHT22;8918;52.092;5.232;2023-11-22T04:38:02;3.20;99.90
17599;DHT22;8918;52.092;5.232;2023-11-22T04:40:29;3.20;99.90
17599;DHT22;8918;52.092;5.232;2023-11-22T04:42:55;3.20;99.90
17599;DHT22;8918;52.092;5.232;2023-11-22T04:45:20;3.20;99.90
17599;DHT22;8918;52.092;5.232;2023-11-22T04:47:46;3.20;99.90
17599;DHT22;8918;52.092;5.232;2023-11-22T04:50:11;3.10;99.90
17599;DHT22;8918;52.092;5.232;2023-11-22T04:52:37;3.10;99.90
17599;DHT22;8918;52.092;5.232;2023-11-22T04:55:03;3.10;99.90
17599;DHT22;8918;52.092;5.232;2023-11-22T04:57:30;3.10;99.90
17599;DHT22;8918;52.092;5.232;2023-11-22T04:59:55;3.10;99.90
17599;DHT22;8918;52.092;5.232;2023-11-22T05:02:21;3.10;99.90
17599;DHT22;8918;52.092;5.232;2023-11-22T05:04:46;3.20;99.90
17599;DHT22;8918;52.092;5.232;2023-11-22T05:07:14;3.20;99.90
17599;DHT22;8918;52.092;5.232;2023-11-22T05:09:40;3.20;99.90
17599;DHT22;8918;52.092;5.232;2023-11-22T05:12:06;3.20;99.90
17599;DHT22;8918;52.092;5.232;2023-11-22T05:14:32;3.20;99.90
17599;DHT22;8918;52.092;5.232;2023-11-22T05:16:57;3.30;99.90
17599;DHT22;8918;52.092;5.232;2023-11-22T05:19:24;3.30;99.90
17599;DHT22;8918;52.092;5.232;2023-11-22T05:21:49;3.30;99.90
17599;DHT22;8918;52.092;5.232;2023-11-22T05:24:15;3.30;99.90
17599;DHT22;8918;52.092;5.232;2023-11-22T05:26:41;3.40;99.90
17599;DHT22;8918;52.092;5.232;2023-11-22T05:29:06;3.40;99.90
17599;DHT22;8918;52.092;5.232;2023-11-22T05:31:32;3.40;99.90
17599;DHT22;8918;52.092;5.232;2023-11-22T05:33:57;3.40;99.90
17599;DHT22;8918;52.092;5.232;2023-11-22T05:36:23;3.40;99.90
17599;DHT22;8918;52.092;5.232;2023-11-22T05:38:48;3.40;99.90
17599;DHT22;8918;52.092;5.232;2023-11-22T05:41:15;3.40;99.90
17599;DHT22;8918;52.092;5.232;2023-11-22T05:43:41;3.40;99.90
17599;DHT22;8918;52.092;5.232;2023-11-22T05:46:08;3.50;99.90
17599;DHT22;8918;52.092;5.232;2023-11-22T05:48:33;3.40;99.90
17599;DHT22;8918;52.092;5.232;2023-11-22T05:50:59;3.50;99.90
17599;DHT22;8918;52.092;5.232;2023-11-22T05:53:25;3.40;99.90
17599;DHT22;8918;52.092;5.232;2023-11-22T05:55:51;3.40;99.90
17599;DHT22;8918;52.092;5.232;2023-11-22T05:58:18;3.40;99.90
17599;DHT22;8918;52.092;5.232;2023-11-22T06:00:44;3.40;99.90
17599;DHT22;8918;52.092;5.232;2023-11-22T06:03:11;3.40;99.90
17599;DHT22;8918;52.092;5.232;2023-11-22T06:05:38;3.40;99.90
17599;DHT22;8918;52.092;5.232;2023-11-22T06:08:04;3.40;99.90
17599;DHT22;8918;52.092;5.232;2023-11-22T06:10:30;3.40;99.90
17599;DHT22;8918;52.092;5.232;2023-11-22T06:12:55;3.40;99.90
17599;DHT22;8918;52.092;5.232;2023-11-22T06:15:21;3.40;99.90
17599;DHT22;8918;52.092;5.232;2023-11-22T06:17:48;3.40;99.90
17599;DHT22;8918;52.092;5.232;2023-11-22T06:20:16;3.40;99.90
17599;DHT22;8918;52.092;5.232;2023-11-22T06:22:42;3.40;99.90
17599;DHT22;8918;52.092;5.232;2023-11-22T06:25:14;3.50;99.90
17599;DHT22;8918;52.092;5.232;2023-11-22T06:27:41;3.50;99.90
17599;DHT22;8918;52.092;5.232;2023-11-22T06:30:07;3.50;99.90
17599;DHT22;8918;52.092;5.232;2023-11-22T06:32:34;3.40;99.90
17599;DHT22;8918;52.092;5.232;2023-11-22T06:35:00;3.40;99.90
17599;DHT22;8918;52.092;5.232;2023-11-22T06:37:25;3.40;99.90
17599;DHT22;8918;52.092;5.232;2023-11-22T06:39:51;3.40;99.90
17599;DHT22;8918;52.092;5.232;2023-11-22T06:42:17;3.40;99.90
17599;DHT22;8918;52.092;5.232;2023-11-22T06:44:43;3.30;99.90
17599;DHT22;8918;52.092;5.232;2023-11-22T06:47:08;3.30;99.90
17599;DHT22;8918;52.092;5.232;2023-11-22T06:49:34;3.30;99.90
17599;DHT22;8918;52.092;5.232;2023-11-22T06:52:00;3.40;99.90
17599;DHT22;8918;52.092;5.232;2023-11-22T06:54:26;3.40;99.90
17599;DHT22;8918;52.092;5.232;2023-11-22T06:56:51;3.30;99.90
17599;DHT22;8918;52.092;5.232;2023-11-22T06:59:17;3.40;99.90
17599;DHT22;8918;52.092;5.232;2023-11-22T07:01:44;3.40;99.90
17599;DHT22;8918;52.092;5.232;2023-11-22T07:04:10;3.50;99.90
17599;DHT22;8918;52.092;5.232;2023-11-22T07:06:36;3.40;99.90
17599;DHT22;8918;52.092;5.232;2023-11-22T07:09:04;3.40;99.90
17599;DHT22;8918;52.092;5.232;2023-11-22T07:11:29;3.50;99.90
17599;DHT22;8918;52.092;5.232;2023-11-22T07:13:56;3.40;99.90
17599;DHT22;8918;52.092;5.232;2023-11-22T07:16:23;3.50;99.90
17599;DHT22;8918;52.092;5.232;2023-11-22T07:18:50;3.50;99.90
17599;DHT22;8918;52.092;5.232;2023-11-22T07:21:15;3.60;99.90
17599;DHT22;8918;52.092;5.232;2023-11-22T07:23:42;3.60;99.90
17599;DHT22;8918;52.092;5.232;2023-11-22T07:26:08;3.60;99.90
17599;DHT22;8918;52.092;5.232;2023-11-22T07:28:34;3.60;99.90
17599;DHT22;8918;52.092;5.232;2023-11-22T07:31:01;3.60;99.90
17599;DHT22;8918;52.092;5.232;2023-11-22T07:33:27;3.60;99.90
17599;DHT22;8918;52.092;5.232;2023-11-22T07:35:53;3.50;99.90
17599;DHT22;8918;52.092;5.232;2023-11-22T07:38:19;3.60;99.90
17599;DHT22;8918;52.092;5.232;2023-11-22T07:40:44;3.60;99.90
17599;DHT22;8918;52.092;5.232;2023-11-22T07:43:10;3.60;99.90
17599;DHT22;8918;52.092;5.232;2023-11-22T07:45:36;3.60;99.90
17599;DHT22;8918;52.092;5.232;2023-11-22T07:48:03;3.60;99.90
17599;DHT22;8918;52.092;5.232;2023-11-22T07:50:29;3.60;99.90
17599;DHT22;8918;52.092;5.232;2023-11-22T07:52:55;3.60;99.90
17599;DHT22;8918;52.092;5.232;2023-11-22T07:55:21;3.60;99.90
17599;DHT22;8918;52.092;5.232;2023-11-22T07:57:48;3.50;99.90
17599;DHT22;8918;52.092;5.232;2023-11-22T08:00:15;3.50;99.90
17599;DHT22;8918;52.092;5.232;2023-11-22T08:02:47;3.50;99.90
17599;DHT22;8918;52.092;5.232;2023-11-22T08:05:13;3.60;99.90
17599;DHT22;8918;52.092;5.232;2023-11-22T08:07:43;3.60;99.90
17599;DHT22;8918;52.092;5.232;2023-11-22T08:10:11;3.60;99.90
17599;DHT22;8918;52.092;5.232;2023-11-22T08:12:45;3.70;99.90
17599;DHT22;8918;52.092;5.232;2023-11-22T08:15:12;3.70;99.90
17599;DHT22;8918;52.092;5.232;2023-11-22T08:17:41;3.70;99.90
17599;DHT22;8918;52.092;5.232;2023-11-22T08:20:07;3.70;99.90
17599;DHT22;8918;52.092;5.232;2023-11-22T08:22:38;3.70;99.90
17599;DHT22;8918;52.092;5.232;2023-11-22T08:25:05;3.70;99.90
17599;DHT22;8918;52.092;5.232;2023-11-22T08:27:31;3.70;99.90
17599;DHT22;8918;52.092;5.232;2023-11-22T08:29:57;3.70;99.90
17599;DHT22;8918;52.092;5.232;2023-11-22T08:32:23;3.70;99.90
17599;DHT22;8918;52.092;5.232;2023-11-22T08:34:53;3.80;99.90
17599;DHT22;8918;52.092;5.232;2023-11-22T08:37:18;3.80;99.90
17599;DHT22;8918;52.092;5.232;2023-11-22T08:39:44;3.80;99.90
17599;DHT22;8918;52.092;5.232;2023-11-22T08:42:09;3.80;99.90
17599;DHT22;8918;52.092;5.232;2023-11-22T08:44:36;3.90;99.90
17599;DHT22;8918;52.092;5.232;2023-11-22T08:47:02;3.90;99.90
17599;DHT22;8918;52.092;5.232;2023-11-22T08:49:29;3.90;99.90
17599;DHT22;8918;52.092;5.232;2023-11-22T08:51:54;4.00;99.90
17599;DHT22;8918;52.092;5.232;2023-11-22T08:54:20;4.00;99.90
17599;DHT22;8918;52.092;5.232;2023-11-22T08:56:45;4.10;99.90
17599;DHT22;8918;52.092;5.232;2023-11-22T08:59:14;4.10;99.90
17599;DHT22;8918;52.092;5.232;2023-11-22T09:01:41;4.10;99.90
17599;DHT22;8918;52.092;5.232;2023-11-22T09:04:11;4.20;99.90
17599;DHT22;8918;52.092;5.232;2023-11-22T09:06:36;4.20;99.90
17599;DHT22;8918;52.092;5.232;2023-11-22T09:09:02;4.20;99.90
17599;DHT22;8918;52.092;5.232;2023-11-22T09:11:28;4.30;99.90
17599;DHT22;8918;52.092;5.232;2023-11-22T09:13:54;4.30;99.90
17599;DHT22;8918;52.092;5.232;2023-11-22T09:16:22;4.30;99.90
17599;DHT22;8918;52.092;5.232;2023-11-22T09:18:50;4.40;99.90
17599;DHT22;8918;52.092;5.232;2023-11-22T09:21:16;4.40;99.90
17599;DHT22;8918;52.092;5.232;2023-11-22T09:23:42;4.40;99.90
17599;DHT22;8918;52.092;5.232;2023-11-22T09:26:08;4.40;99.90
17599;DHT22;8918;52.092;5.232;2023-11-22T09:28:34;4.50;99.90
17599;DHT22;8918;52.092;5.232;2023-11-22T09:30:59;4.50;99.90
17599;DHT22;8918;52.092;5.232;2023-11-22T09:33:31;4.60;99.90
17599;DHT22;8918;52.092;5.232;2023-11-22T09:35:57;4.50;99.90
17599;DHT22;8918;52.092;5.232;2023-11-22T09:38:26;4.60;99.90
17599;DHT22;8918;52.092;5.232;2023-11-22T09:40:51;4.60;99.90
17599;DHT22;8918;52.092;5.232;2023-11-22T09:43:18;4.70;99.90
17599;DHT22;8918;52.092;5.232;2023-11-22T09:45:49;4.70;99.90
17599;DHT22;8918;52.092;5.232;2023-11-22T09:48:16;4.70;99.90
17599;DHT22;8918;52.092;5.232;2023-11-22T09:51:04;4.70;99.90
17599;DHT22;8918;52.092;5.232;2023-11-22T09:53:33;4.80;99.90
17599;DHT22;8918;52.092;5.232;2023-11-22T09:56:01;4.90;99.90
17599;DHT22;8918;52.092;5.232;2023-11-22T09:58:30;4.90;99.90
17599;DHT22;8918;52.092;5.232;2023-11-22T10:00:57;4.90;99.90
17599;DHT22;8918;52.092;5.232;2023-11-22T10:03:23;4.80;99.90
17599;DHT22;8918;52.092;5.232;2023-11-22T10:05:49;4.90;99.90
17599;DHT22;8918;52.092;5.232;2023-11-22T10:08:17;4.90;99.90
17599;DHT22;8918;52.092;5.232;2023-11-22T10:10:44;5.00;99.90
17599;DHT22;8918;52.092;5.232;2023-11-22T10:13:13;5.00;99.90
17599;DHT22;8918;52.092;5.232;2023-11-22T10:15:38;5.00;99.90
17599;DHT22;8918;52.092;5.232;2023-11-22T10:18:04;5.00;99.90
17599;DHT22;8918;52.092;5.232;2023-11-22T10:20:40;5.10;99.90
17599;DHT22;8918;52.092;5.232;2023-11-22T10:23:10;5.10;99.90
17599;DHT22;8918;52.092;5.232;2023-11-22T10:25:52;5.10;99.90
17599;DHT22;8918;52.092;5.232;2023-11-22T10:28:21;5.20;99.90
17599;DHT22;8918;52.092;5.232;2023-11-22T10:30:49;5.20;99.90
17599;DHT22;8918;52.092;5.232;2023-11-22T10:33:17;5.20;99.90
17599;DHT22;8918;52.092;5.232;2023-11-22T10:35:47;5.20;99.90
17599;DHT22;8918;52.092;5.232;2023-11-22T10:38:14;5.30;99.90
17599;DHT22;8918;52.092;5.232;2023-11-22T10:40:40;5.30;99.90
17599;DHT22;8918;52.092;5.232;2023-11-22T10:43:08;5.40;99.90
17599;DHT22;8918;52.092;5.232;2023-11-22T10:45:36;5.40;99.90
17599;DHT22;8918;52.092;5.232;2023-11-22T10:48:03;5.50;99.90
17599;DHT22;8918;52.092;5.232;2023-11-22T10:50:28;5.60;99.90
17599;DHT22;8918;52.092;5.232;2023-11-22T10:52:58;5.70;99.90
17599;DHT22;8918;52.092;5.232;2023-11-22T10:55:32;5.70;99.90
17599;DHT22;8918;52.092;5.232;2023-11-22T10:58:02;5.90;99.90
17599;DHT22;8918;52.092;5.232;2023-11-22T11:00:31;5.90;99.90
17599;DHT22;8918;52.092;5.232;2023-11-22T11:03:08;5.90;99.90
17599;DHT22;8918;52.092;5.232;2023-11-22T11:05:39;5.90;99.90
17599;DHT22;8918;52.092;5.232;2023-11-22T11:08:12;6.00;99.90
17599;DHT22;8918;52.092;5.232;2023-11-22T11:10:40;6.00;99.90
17599;DHT22;8918;52.092;5.232;2023-11-22T11:13:07;6.10;99.90
17599;DHT22;8918;52.092;5.232;2023-11-22T11:15:35;6.20;99.90
17599;DHT22;8918;52.092;5.232;2023-11-22T11:18:01;6.30;99.90
17599;DHT22;8918;52.092;5.232;2023-11-22T11:20:32;6.40;99.90
17599;DHT22;8918;52.092;5.232;2023-11-22T11:23:02;6.40;99.90
17599;DHT22;8918;52.092;5.232;2023-11-22T11:25:28;6.40;99.90
17599;DHT22;8918;52.092;5.232;2023-11-22T11:27:57;6.40;99.90
17599;DHT22;8918;52.092;5.232;2023-11-22T11:30:45;6.30;99.90
17599;DHT22;8918;52.092;5.232;2023-11-22T11:33:12;6.30;99.90
17599;DHT22;8918;52.092;5.232;2023-11-22T11:35:47;6.30;99.90
17599;DHT22;8918;52.092;5.232;2023-11-22T11:38:19;6.20;99.90
17599;DHT22;8918;52.092;5.232;2023-11-22T11:40:47;6.20;99.90
17599;DHT22;8918;52.092;5.232;2023-11-22T11:43:12;6.10;99.90
17599;DHT22;8918;52.092;5.232;2023-11-22T11:45:47;6.10;99.90
17599;DHT22;8918;52.092;5.232;2023-11-22T11:48:14;6.10;99.90
17599;DHT22;8918;52.092;5.232;2023-11-22T11:50:40;6.10;99.90
17599;DHT22;8918;52.092;5.232;2023-11-22T11:53:06;6.20;99.90
17599;DHT22;8918;52.092;5.232;2023-11-22T11:55:32;6.20;99.90
17599;DHT22;8918;52.092;5.232;2023-11-22T11:58:04;6.30;99.90
17599;DHT22;8918;52.092;5.232;2023-11-22T12:00:30;6.20;99.90
17599;DHT22;8918;52.092;5.232;2023-11-22T12:02:56;6.30;99.90
17599;DHT22;8918;52.092;5.232;2023-11-22T12:05:21;6.40;99.90
17599;DHT22;8918;52.092;5.232;2023-11-22T12:07:47;6.50;99.90
17599;DHT22;8918;52.092;5.232;2023-11-22T12:10:13;6.50;99.90
17599;DHT22;8918;52.092;5.232;2023-11-22T12:12:39;6.60;99.90
17599;DHT22;8918;52.092;5.232;2023-11-22T12:15:05;6.70;99.90
17599;DHT22;8918;52.092;5.232;2023-11-22T12:17:32;6.80;99.90
17599;DHT22;8918;52.092;5.232;2023-11-22T12:20:15;6.90;99.90
17599;DHT22;8918;52.092;5.232;2023-11-22T12:22:47;7.10;99.90
17599;DHT22;8918;52.092;5.232;2023-11-22T12:25:14;7.20;99.90
17599;DHT22;8918;52.092;5.232;2023-11-22T12:27:44;7.40;99.90
17599;DHT22;8918;52.092;5.232;2023-11-22T12:30:33;7.40;99.90
17599;DHT22;8918;52.092;5.232;2023-11-22T12:33:03;7.40;99.90
17599;DHT22;8918;52.092;5.232;2023-11-22T12:35:30;7.40;99.90
17599;DHT22;8918;52.092;5.232;2023-11-22T12:37:56;7.40;99.90
17599;DHT22;8918;52.092;5.232;2023-11-22T12:40:23;7.50;99.90
17599;DHT22;8918;52.092;5.232;2023-11-22T12:42:50;7.50;99.90
17599;DHT22;8918;52.092;5.232;2023-11-22T12:45:23;7.50;99.90
17599;DHT22;8918;52.092;5.232;2023-11-22T12:47:51;7.40;99.90
17599;DHT22;8918;52.092;5.232;2023-11-22T12:50:33;7.30;99.90
17599;DHT22;8918;52.092;5.232;2023-11-22T12:53:14;7.20;99.90
17599;DHT22;8918;52.092;5.232;2023-11-22T12:55:44;7.00;99.90
17599;DHT22;8918;52.092;5.232;2023-11-22T12:58:11;6.90;99.90
17599;DHT22;8918;52.092;5.232;2023-11-22T13:00:40;6.90;99.90
17599;DHT22;8918;52.092;5.232;2023-11-22T13:03:07;6.70;99.90
17599;DHT22;8918;52.092;5.232;2023-11-22T13:05:33;6.70;99.90
17599;DHT22;8918;52.092;5.232;2023-11-22T13:07:58;6.60;99.90
17599;DHT22;8918;52.092;5.232;2023-11-22T13:10:24;6.60;99.90
17599;DHT22;8918;52.092;5.232;2023-11-22T13:12:54;6.50;99.90
17599;DHT22;8918;52.092;5.232;2023-11-22T13:15:21;6.50;99.90
17599;DHT22;8918;52.092;5.232;2023-11-22T13:17:52;6.40;99.90
17599;DHT22;8918;52.092;5.232;2023-11-22T13:20:24;6.30;99.90
17599;DHT22;8918;52.092;5.232;2023-11-22T13:22:54;6.40;99.90
17599;DHT22;8918;52.092;5.232;2023-11-22T13:25:23;6.30;99.90
17599;DHT22;8918;52.092;5.232;2023-11-22T13:27:50;6.30;99.90
17599;DHT22;8918;52.092;5.232;2023-11-22T13:30:16;6.20;99.90
17599;DHT22;8918;52.092;5.232;2023-11-22T13:32:51;6.20;99.90
17599;DHT22;8918;52.092;5.232;2023-11-22T13:35:17;6.20;99.90
17599;DHT22;8918;52.092;5.232;2023-11-22T13:37:47;6.20;99.90
17599;DHT22;8918;52.092;5.232;2023-11-22T13:40:18;6.20;99.90
17599;DHT22;8918;52.092;5.232;2023-11-22T13:42:48;6.10;99.90
17599;DHT22;8918;52.092;5.232;2023-11-22T13:45:15;6.10;99.90
17599;DHT22;8918;52.092;5.232;2023-11-22T13:47:50;6.10;99.90
17599;DHT22;8918;52.092;5.232;2023-11-22T13:50:18;6.10;99.90
17599;DHT22;8918;52.092;5.232;2023-11-22T13:52:53;6.10;99.90
17599;DHT22;8918;52.092;5.232;2023-11-22T13:55:20;6.00;99.90
17599;DHT22;8918;52.092;5.232;2023-11-22T13:57:49;6.10;99.90
17599;DHT22;8918;52.092;5.232;2023-11-22T14:00:16;6.00;99.90
17599;DHT22;8918;52.092;5.232;2023-11-22T14:02:53;6.00;99.90
17599;DHT22;8918;52.092;5.232;2023-11-22T14:05:24;6.00;99.90
17599;DHT22;8918;52.092;5.232;2023-11-22T14:07:50;6.00;99.90
17599;DHT22;8918;52.092;5.232;2023-11-22T14:10:17;6.00;99.90
17599;DHT22;8918;52.092;5.232;2023-11-22T14:12:43;5.90;99.90
17599;DHT22;8918;52.092;5.232;2023-11-22T14:15:10;5.90;99.90
17599;DHT22;8918;52.092;5.232;2023-11-22T14:17:36;5.90;99.90
17599;DHT22;8918;52.092;5.232;2023-11-22T14:20:05;5.90;99.90
17599;DHT22;8918;52.092;5.232;2023-11-22T14:22:32;5.90;99.90
17599;DHT22;8918;52.092;5.232;2023-11-22T14:24:57;5.90;99.90
17599;DHT22;8918;52.092;5.232;2023-11-22T14:27:23;5.90;99.90
17599;DHT22;8918;52.092;5.232;2023-11-22T14:29:49;5.90;99.90
17599;DHT22;8918;52.092;5.232;2023-11-22T14:32:19;5.80;99.90
17599;DHT22;8918;52.092;5.232;2023-11-22T14:34:44;5.90;99.90
17599;DHT22;8918;52.092;5.232;2023-11-22T14:37:10;5.90;99.90
17599;DHT22;8918;52.092;5.232;2023-11-22T14:39:36;5.90;99.90
17599;DHT22;8918;52.092;5.232;2023-11-22T14:42:02;5.90;99.90
17599;DHT22;8918;52.092;5.232;2023-11-22T14:44:28;5.90;99.90
17599;DHT22;8918;52.092;5.232;2023-11-22T14:46:54;5.90;99.90
17599;DHT22;8918;52.092;5.232;2023-11-22T14:49:19;5.80;99.90
17599;DHT22;8918;52.092;5.232;2023-11-22T14:51:46;5.90;99.90
17599;DHT22;8918;52.092;5.232;2023-11-22T14:54:12;5.80;99.90
17599;DHT22;8918;52.092;5.232;2023-11-22T14:56:37;5.70;99.90
17599;DHT22;8918;52.092;5.232;2023-11-22T14:59:05;5.70;99.90
17599;DHT22;8918;52.092;5.232;2023-11-22T15:01:31;5.70;99.90
17599;DHT22;8918;52.092;5.232;2023-11-22T15:04:02;5.60;99.90
17599;DHT22;8918;52.092;5.232;2023-11-22T15:06:28;5.70;99.90
17599;DHT22;8918;52.092;5.232;2023-11-22T15:08:54;5.60;99.90
17599;DHT22;8918;52.092;5.232;2023-11-22T15:11:19;5.60;99.90
17599;DHT22;8918;52.092;5.232;2023-11-22T15:13:45;5.50;99.90
17599;DHT22;8918;52.092;5.232;2023-11-22T15:16:10;5.50;99.90
17599;DHT22;8918;52.092;5.232;2023-11-22T15:18:41;5.50;99.90
17599;DHT22;8918;52.092;5.232;2023-11-22T15:21:07;5.50;99.90
17599;DHT22;8918;52.092;5.232;2023-11-22T15:23:33;5.50;99.90
17599;DHT22;8918;52.092;5.232;2023-11-22T15:25:59;5.50;99.90
17599;DHT22;8918;52.092;5.232;2023-11-22T15:28:25;5.50;99.90
17599;DHT22;8918;52.092;5.232;2023-11-22T15:30:51;5.50;99.90
17599;DHT22;8918;52.092;5.232;2023-11-22T15:33:23;5.50;99.90
17599;DHT22;8918;52.092;5.232;2023-11-22T15:35:49;5.50;99.90
17599;DHT22;8918;52.092;5.232;2023-11-22T15:38:14;5.50;99.90
17599;DHT22;8918;52.092;5.232;2023-11-22T15:40:40;5.50;99.90
17599;DHT22;8918;52.092;5.232;2023-11-22T15:43:05;5.50;99.90
17599;DHT22;8918;52.092;5.232;2023-11-22T15:45:31;5.50;99.90
17599;DHT22;8918;52.092;5.232;2023-11-22T15:47:57;5.50;99.90
17599;DHT22;8918;52.092;5.232;2023-11-22T15:50:23;5.50;99.90
17599;DHT22;8918;52.092;5.232;2023-11-22T15:52:49;5.50;99.90
17599;DHT22;8918;52.092;5.232;2023-11-22T15:55:14;5.50;99.90
17599;DHT22;8918;52.092;5.232;2023-11-22T15:57:40;5.50;99.90
17599;DHT22;8918;52.092;5.232;2023-11-22T16:00:06;5.40;99.90